Time;durP1;ratioP1;P1;durP2;ratioP2;P2;SDS_P1;SDS_P2;PMS_P1;PMS_P2;Temp;Humidity;BMP_temperature;BMP_pressure;BME280_temperature;BME280_humidity;BME280_pressure;Samples;Min_cycle;Max_cycle;Signal;HPM_P1;HPM_P2
2022/11/24 00:01:06;;;;;;;9.63;4.40;;;23.20;22.60;;;;;;5042526;28;20450;-63
2022/11/24 00:03:32;;;;;;;22.27;9.43;;;23.10;23.10;;;;;;5039972;28;20182;-67
2022/11/24 00:06:03;;;;;;;20.13;6.70;;;22.90;23.90;;;;;;5039134;28;20066;-65
2022/11/24 00:08:34;;;;;;;16.27;5.90;;;22.90;24.30;;;;;;5036423;28;20081;-67
2022/11/24 00:11:08;;;;;;;15.60;3.97;;;22.70;23.90;;;;;;5040335;28;20070;-66
2022/11/24 00:13:37;;;;;;;11.48;4.22;;;22.60;24.60;;;;;;5038245;28;20197;-64
2022/11/24 00:16:29;;;;;;;12.18;2.70;;;22.40;24.90;;;;;;5042549;28;20087;-65
2022/11/24 00:18:57;;;;;;;7.80;2.50;;;22.20;25.50;;;;;;5027672;28;20167;-67
2022/11/24 00:21:25;;;;;;;12.50;2.72;;;22.00;26.20;;;;;;5037335;28;20542;-69
2022/11/24 00:23:52;;;;;;;8.07;1.90;;;21.80;26.50;;;;;;5045942;28;20083;-66
2022/11/24 00:26:21;;;;;;;14.43;2.53;;;21.60;26.80;;;;;;5033547;28;20107;-67
2022/11/24 00:28:50;;;;;;;12.65;2.65;;;21.50;26.90;;;;;;5043206;28;20074;-68
2022/11/24 00:31:28;;;;;;;17.92;3.08;;;21.30;27.20;;;;;;5040552;28;20081;-69
2022/11/24 00:33:57;;;;;;;11.98;2.85;;;21.10;27.70;;;;;;5042519;28;20472;-65
2022/11/24 00:36:26;;;;;;;8.05;2.08;;;21.00;27.50;;;;;;5037982;28;20097;-68
2022/11/24 00:38:58;;;;;;;21.58;3.30;;;20.80;27.80;;;;;;5037767;28;20135;-62
2022/11/24 00:41:26;;;;;;;18.60;3.38;;;20.60;28.30;;;;;;5039607;28;20065;-66
2022/11/24 00:43:53;;;;;;;23.77;3.65;;;20.40;28.30;;;;;;5037390;28;20543;-65
2022/11/24 00:46:20;;;;;;;16.77;3.63;;;20.30;28.30;;;;;;5038358;28;20088;-69
2022/11/24 00:48:50;;;;;;;20.50;4.00;;;20.20;28.50;;;;;;5037659;28;20132;-67
2022/11/24 00:51:18;;;;;;;16.48;4.28;;;20.00;29.20;;;;;;5036692;28;20074;-66
2022/11/24 00:53:45;;;;;;;31.60;5.10;;;19.90;29.90;;;;;;5038783;28;22185;-68
2022/11/24 00:56:12;;;;;;;37.97;4.65;;;19.70;30.60;;;;;;5036808;28;20086;-67
2022/11/24 00:58:42;;;;;;;27.80;4.88;;;19.60;31.30;;;;;;5032575;28;20070;-66
2022/11/24 01:01:12;;;;;;;24.27;5.75;;;19.50;31.30;;;;;;5036336;28;20073;-69
2022/11/24 01:03:39;;;;;;;28.02;6.35;;;19.30;31.20;;;;;;5041846;28;20113;-67
2022/11/24 01:06:25;;;;;;;36.88;7.30;;;19.20;31.70;;;;;;5041133;28;20510;-69
2022/11/24 01:08:51;;;;;;;21.73;4.90;;;19.10;32.00;;;;;;5043853;28;20164;-67
2022/11/24 01:12:00;;;;;;;35.88;5.82;;;19.00;32.10;;;;;;5040136;28;20412;-67
2022/11/24 01:14:22;;;;;;;29.10;4.75;;;19.00;32.70;;;;;;5039402;28;20507;-67
2022/11/24 01:16:48;;;;;;;49.38;5.47;;;18.80;32.80;;;;;;5039930;28;20505;-67
2022/11/24 01:19:18;;;;;;;38.00;5.47;;;18.70;32.50;;;;;;5042461;28;20098;-65
2022/11/24 01:21:45;;;;;;;56.63;8.20;;;18.60;34.20;;;;;;5042042;28;20076;-67
2022/11/24 01:24:14;;;;;;;55.92;8.18;;;18.50;33.60;;;;;;5045994;28;20147;-68
2022/11/24 01:26:41;;;;;;;74.35;9.18;;;18.40;33.40;;;;;;5045363;28;20446;-66
2022/11/24 01:29:10;;;;;;;48.88;9.50;;;18.40;33.60;;;;;;5035473;28;20656;-67
2022/11/24 01:31:37;;;;;;;59.33;9.07;;;18.30;33.50;;;;;;5047080;28;20070;-66
2022/11/24 01:34:04;;;;;;;56.85;9.95;;;18.20;33.40;;;;;;5044062;28;20183;-66
2022/11/24 01:36:30;;;;;;;77.57;10.18;;;18.10;33.70;;;;;;5044502;28;20086;-65
2022/11/24 01:38:57;;;;;;;78.55;11.27;;;18.00;34.00;;;;;;5045237;28;20549;-67
2022/11/24 01:41:24;;;;;;;66.78;10.13;;;18.00;34.70;;;;;;5038061;28;20104;-68
2022/11/24 01:43:52;;;;;;;61.05;10.10;;;17.90;34.80;;;;;;5043033;28;20070;-69
2022/11/24 01:46:42;;;;;;;71.45;10.02;;;17.80;35.10;;;;;;5040096;28;20093;-68
2022/11/24 01:49:08;;;;;;;62.67;9.80;;;17.70;35.10;;;;;;5045435;28;20086;-66
2022/11/24 01:52:00;;;;;;;;;;;17.60;35.10;;;;;;5045101;28;20501;-67
2022/11/24 01:54:32;;;;;;;63.25;9.07;;;17.60;35.00;;;;;;5038934;28;19957;-67
2022/11/24 01:57:04;;;;;;;62.90;8.38;;;17.40;34.90;;;;;;5041643;28;20618;-67
2022/11/24 01:59:31;;;;;;;56.45;8.65;;;17.40;35.60;;;;;;5040036;28;20088;-73
2022/11/24 02:01:58;;;;;;;70.22;10.50;;;17.30;35.70;;;;;;5040080;28;20078;-68
2022/11/24 02:04:30;;;;;;;63.83;9.98;;;17.30;36.10;;;;;;5045823;28;20105;-67
2022/11/24 02:07:00;;;;;;;94.18;11.57;;;17.20;36.30;;;;;;5040879;28;20460;-70
2022/11/24 02:09:50;;;;;;;66.90;10.60;;;17.10;36.40;;;;;;5044453;28;20539;-70
2022/11/24 02:12:16;;;;;;;60.10;9.55;;;17.00;36.60;;;;;;5046396;28;21281;-68
2022/11/24 02:14:44;;;;;;;68.22;10.50;;;17.00;37.20;;;;;;5039933;28;20101;-69
2022/11/24 02:17:11;;;;;;;68.43;11.68;;;17.00;36.90;;;;;;5042140;28;20132;-66
2022/11/24 02:19:40;;;;;;;57.63;11.52;;;17.00;36.60;;;;;;5031005;28;20485;-67
2022/11/24 02:22:19;;;;;;;57.35;11.60;;;17.00;36.60;;;;;;5041146;28;20077;-67
2022/11/24 02:25:00;;;;;;;60.97;11.60;;;16.90;37.60;;;;;;5043459;28;20095;-66
2022/11/24 02:27:26;;;;;;;57.20;16.95;;;16.80;37.90;;;;;;5043532;28;20089;-66
2022/11/24 02:29:53;;;;;;;63.40;13.63;;;16.70;37.60;;;;;;5039539;28;20157;-66
2022/11/24 02:32:20;;;;;;;59.45;12.70;;;16.70;38.60;;;;;;5042468;28;20074;-66
2022/11/24 02:34:46;;;;;;;74.35;12.75;;;16.70;38.70;;;;;;5044026;28;20112;-65
2022/11/24 02:37:13;;;;;;;;;;;16.70;38.30;;;;;;5042437;28;20108;-64
2022/11/24 02:39:39;;;;;;;68.68;12.93;;;16.70;38.70;;;;;;5038342;28;20008;-67
2022/11/24 02:42:10;;;;;;;65.28;13.57;;;16.60;38.70;;;;;;5042891;28;20172;-76
2022/11/24 02:44:44;;;;;;;66.38;15.30;;;16.60;38.60;;;;;;5040442;28;20135;-70
2022/11/24 02:47:12;;;;;;;61.95;12.82;;;16.60;39.00;;;;;;5038385;28;20105;-68
2022/11/24 02:49:38;;;;;;;85.45;14.00;;;16.50;39.70;;;;;;5038473;28;20542;-70
2022/11/24 02:52:06;;;;;;;89.45;14.95;;;16.40;39.00;;;;;;5039192;28;20124;-71
2022/11/24 02:54:32;;;;;;;72.20;14.38;;;16.30;39.20;;;;;;5029246;28;20412;-72
2022/11/24 02:56:59;;;;;;;;;;;16.30;39.50;;;;;;5043693;28;20168;-71
2022/11/24 02:59:25;;;;;;;79.07;19.50;;;16.30;39.80;;;;;;5039613;28;20027;-68
2022/11/24 03:01:51;;;;;;;;;;;16.20;39.70;;;;;;5041597;28;20326;-69
2022/11/24 03:04:18;;;;;;;77.05;17.60;;;16.20;39.50;;;;;;5033238;28;20083;-71
2022/11/24 03:06:44;;;;;;;;;;;16.20;40.00;;;;;;5044242;28;20073;-70
2022/11/24 03:09:10;;;;;;;88.15;16.52;;;16.10;39.90;;;;;;5042192;28;19957;-70
2022/11/24 03:11:37;;;;;;;;;;;16.10;40.40;;;;;;5046565;28;20412;-69
2022/11/24 03:14:04;;;;;;;81.57;17.58;;;16.00;40.70;;;;;;5035766;28;19973;-67
2022/11/24 03:16:30;;;;;;;73.05;15.52;;;15.90;40.40;;;;;;5044605;28;20089;-65
2022/11/24 03:18:57;;;;;;;76.22;15.55;;;15.90;40.40;;;;;;5029494;28;20073;-67
2022/11/24 03:21:24;;;;;;;71.75;17.20;;;15.90;40.80;;;;;;5039491;28;20070;-68
2022/11/24 03:23:50;;;;;;;;;;;15.90;41.30;;;;;;5039057;28;20540;-71
2022/11/24 03:26:20;;;;;;;62.70;16.08;;;15.70;41.30;;;;;;5042481;28;19957;-69
2022/11/24 03:28:46;;;;;;;64.53;16.55;;;15.70;41.30;;;;;;5041688;28;20077;-66
2022/11/24 03:31:13;;;;;;;88.45;17.98;;;15.70;42.10;;;;;;5040147;28;20088;-70
2022/11/24 03:33:40;;;;;;;121.43;24.20;;;15.60;41.70;;;;;;5042333;28;20546;-67
2022/11/24 03:36:06;;;;;;;;;;;15.60;41.90;;;;;;5039513;28;20534;-66
2022/11/24 03:38:33;;;;;;;102.88;26.75;;;15.60;42.20;;;;;;5038321;28;19965;-66
2022/11/24 03:40:59;;;;;;;115.63;31.95;;;15.50;42.50;;;;;;5038402;28;20094;-67
2022/11/24 03:43:25;;;;;;;;;;;15.50;42.60;;;;;;5042530;28;20173;-67
2022/11/24 03:45:52;;;;;;;106.07;35.00;;;15.40;42.20;;;;;;5038795;28;20044;-67
2022/11/24 03:48:20;;;;;;;;;;;15.40;41.90;;;;;;5041193;28;20089;-67
2022/11/24 03:50:58;;;;;;;115.07;32.05;;;15.20;42.00;;;;;;5039730;28;20334;-66
2022/11/24 03:53:26;;;;;;;108.18;33.63;;;15.30;43.10;;;;;;5038906;28;20105;-65
2022/11/24 03:55:53;;;;;;;89.40;28.33;;;15.30;43.10;;;;;;5040359;28;20419;-66
2022/11/24 03:58:20;;;;;;;92.68;28.08;;;15.20;43.40;;;;;;5037540;28;20082;-67
2022/11/24 04:00:50;;;;;;;;;;;15.20;43.40;;;;;;5042929;28;20203;-67
2022/11/24 04:03:18;;;;;;;95.07;27.45;;;15.20;43.10;;;;;;5050761;28;19986;-67
2022/11/24 04:05:45;;;;;;;104.57;27.30;;;15.20;43.50;;;;;;5018047;28;20089;-66
2022/11/24 04:08:11;;;;;;;99.85;29.65;;;15.10;43.70;;;;;;5020319;28;20077;-67
2022/11/24 04:10:38;;;;;;;;;;;15.10;43.70;;;;;;5024319;28;20102;-65
2022/11/24 04:13:11;;;;;;;107.90;29.20;;;14.90;43.20;;;;;;5023882;28;19957;-69
2022/11/24 04:15:39;;;;;;;108.90;28.73;;;14.90;43.10;;;;;;5019132;28;20090;-66
2022/11/24 04:18:06;;;;;;;172.50;31.13;;;14.90;43.50;;;;;;5023048;28;20168;-69
2022/11/24 04:20:33;;;;;;;109.43;27.33;;;14.90;43.80;;;;;;5021339;28;20108;-68
2022/11/24 04:23:00;;;;;;;117.15;29.10;;;15.00;43.60;;;;;;5020236;28;20069;-67
2022/11/24 04:25:26;;;;;;;104.32;28.15;;;15.00;44.20;;;;;;5021802;28;20531;-68
2022/11/24 04:27:54;;;;;;;95.35;25.65;;;14.90;45.00;;;;;;5015712;28;20572;-68
2022/11/24 04:30:22;;;;;;;84.07;26.73;;;14.80;44.80;;;;;;5021359;28;20144;-68
2022/11/24 04:32:49;;;;;;;106.05;25.60;;;14.80;44.30;;;;;;5022171;28;20157;-67
2022/11/24 04:35:15;;;;;;;104.43;27.38;;;14.70;45.30;;;;;;5020103;28;20177;-68
2022/11/24 04:37:42;;;;;;;114.45;26.92;;;14.70;44.60;;;;;;5018537;28;20098;-68
2022/11/24 04:40:08;;;;;;;;;;;14.70;45.00;;;;;;5017893;28;20099;-68
2022/11/24 04:42:35;;;;;;;108.63;27.67;;;14.70;44.80;;;;;;5016242;28;19965;-67
2022/11/24 04:45:03;;;;;;;108.75;27.00;;;14.70;45.10;;;;;;5017965;28;20155;-68
2022/11/24 04:47:29;;;;;;;95.43;27.23;;;14.70;45.00;;;;;;5025655;28;20124;-68
2022/11/24 04:49:55;;;;;;;;;;;14.60;45.80;;;;;;5023230;28;20133;-69
2022/11/24 04:52:23;;;;;;;110.05;28.45;;;14.50;44.80;;;;;;5017732;28;19968;-68
2022/11/24 04:54:50;;;;;;;99.68;26.17;;;14.50;44.60;;;;;;5017730;28;20205;-67
2022/11/24 04:57:22;;;;;;;99.95;29.10;;;14.50;44.60;;;;;;5020117;28;20173;-68
2022/11/24 04:59:52;;;;;;;99.07;25.42;;;14.50;44.00;;;;;;5023156;28;20078;-69
2022/11/24 05:02:19;;;;;;;102.57;24.35;;;14.50;44.40;;;;;;5020562;28;20066;-69
2022/11/24 05:04:46;;;;;;;91.45;21.85;;;14.50;43.80;;;;;;5025834;28;20077;-69
2022/11/24 05:07:14;;;;;;;109.20;22.83;;;14.40;42.90;;;;;;5045963;28;20156;-67
2022/11/24 05:12:29;;;;;;;102.00;22.02;;;14.40;42.80;;;;;;5039188;28;20092;-67
2022/11/24 05:14:59;;;;;;;81.55;18.13;;;14.40;43.20;;;;;;5043014;28;20193;-67
2022/11/24 05:17:31;;;;;;;77.10;19.45;;;14.40;42.30;;;;;;5043365;28;20132;-69
2022/11/24 05:19:57;;;;;;;95.80;20.58;;;14.40;43.90;;;;;;5043674;28;20571;-68
2022/11/24 05:22:24;;;;;;;98.97;19.83;;;14.30;43.10;;;;;;5042086;28;20085;-70
2022/11/24 05:24:51;;;;;;;80.53;18.58;;;14.30;43.10;;;;;;5040584;28;20074;-70
2022/11/24 05:27:17;;;;;;;;;;;14.30;43.00;;;;;;5046707;28;20080;-67
2022/11/24 05:29:43;;;;;;;68.30;15.07;;;14.20;42.00;;;;;;5048307;28;20011;-69
2022/11/24 05:32:09;;;;;;;;;;;14.20;41.10;;;;;;5043112;28;20137;-69
2022/11/24 05:34:36;;;;;;;55.03;11.73;;;14.20;41.10;;;;;;5045414;28;19965;-68
2022/11/24 05:37:02;;;;;;;56.15;10.25;;;14.30;41.10;;;;;;5033167;28;20632;-67
2022/11/24 05:39:35;;;;;;;48.83;9.70;;;14.30;39.90;;;;;;5042193;28;20119;-67
2022/11/24 05:42:39;;;;;;;42.88;8.40;;;14.30;39.90;;;;;;5038145;28;20555;-66
2022/11/24 05:44:48;;;;;;;;;;;14.30;39.50;;;;;;5045601;28;20586;-67
2022/11/24 05:47:15;;;;;;;37.35;7.55;;;14.30;39.30;;;;;;5041923;28;19964;-69
2022/11/24 05:49:41;;;;;;;;;;;14.30;39.20;;;;;;5039842;28;20079;-68
2022/11/24 05:52:07;;;;;;;29.77;5.75;;;14.30;39.10;;;;;;5041220;28;20036;-67
2022/11/24 05:54:33;;;;;;;;;;;14.20;38.90;;;;;;5047026;28;20152;-67
2022/11/24 05:56:59;;;;;;;29.17;5.32;;;14.20;38.30;;;;;;5048143;28;20083;-68
2022/11/24 05:59:25;;;;;;;;;;;14.20;37.80;;;;;;5045070;28;20075;-67
2022/11/24 06:01:52;;;;;;;23.65;4.78;;;14.20;37.70;;;;;;5045447;28;19957;-69
2022/11/24 06:04:18;;;;;;;36.72;5.50;;;14.10;38.60;;;;;;5040455;28;20106;-70
2022/11/24 06:06:45;;;;;;;;;;;14.10;38.30;;;;;;5045099;28;20077;-70
2022/11/24 06:09:11;;;;;;;37.08;5.80;;;14.10;38.70;;;;;;5037763;28;20411;-69
2022/11/24 06:11:37;;;;;;;;;;;14.10;38.20;;;;;;5039414;28;20128;-71
2022/11/24 06:14:04;;;;;;;33.63;5.50;;;14.00;38.50;;;;;;5042055;28;19977;-69
2022/11/24 06:16:30;;;;;;;;;;;14.00;39.20;;;;;;5047428;28;20180;-68
2022/11/24 06:18:56;;;;;;;21.98;5.75;;;14.00;39.40;;;;;;5040645;28;20057;-69
2022/11/24 06:21:22;;;;;;;;;;;14.00;39.60;;;;;;5042119;28;20073;-67
2022/11/24 06:23:49;;;;;;;26.23;7.00;;;13.90;40.80;;;;;;5030464;28;19962;-69
2022/11/24 06:26:17;;;;;;;39.50;10.88;;;13.80;40.00;;;;;;5041560;28;20070;-69
2022/11/24 06:28:43;;;;;;;46.38;15.15;;;13.80;40.20;;;;;;5043476;28;20070;-68
2022/11/24 06:31:10;;;;;;;52.08;16.50;;;13.80;40.30;;;;;;5039790;28;20197;-69
2022/11/24 06:33:37;;;;;;;44.92;20.25;;;13.80;40.60;;;;;;5041393;28;20066;-69
2022/11/24 06:36:11;;;;;;;35.38;8.57;;;13.70;41.10;;;;;;5040797;28;20531;-68
2022/11/24 06:38:37;;;;;;;31.55;8.82;;;13.70;40.30;;;;;;5043147;28;20077;-68
2022/11/24 06:41:05;;;;;;;;;;;13.60;40.00;;;;;;5040769;28;20066;-67
2022/11/24 06:43:31;;;;;;;;;;;13.50;40.40;;;;;;5045810;28;19996;-69
2022/11/24 06:45:58;;;;;;;65.07;23.15;;;13.50;39.80;;;;;;5041676;28;19964;-67
2022/11/24 06:48:26;;;;;;;48.33;19.17;;;13.40;39.50;;;;;;5045507;28;20074;-66
2022/11/24 06:50:52;;;;;;;50.67;21.10;;;13.40;40.00;;;;;;5039870;28;20073;-68
2022/11/24 06:53:19;;;;;;;54.30;20.15;;;13.40;39.90;;;;;;5014979;28;20074;-66
2022/11/24 06:55:45;;;;;;;;;;;13.50;40.70;;;;;;5044356;28;20081;-66
2022/11/24 06:58:11;;;;;;;33.60;8.93;;;13.50;41.20;;;;;;5039115;28;19973;-68
2022/11/24 07:00:40;;;;;;;;;;;13.40;40.70;;;;;;5024665;28;20447;-67
2022/11/24 07:03:12;;;;;;;36.00;8.23;;;13.40;39.60;;;;;;5044831;28;20039;-67
2022/11/24 07:05:38;;;;;;;38.72;6.90;;;13.40;39.70;;;;;;5039176;28;20073;-65
2022/11/24 07:08:04;;;;;;;;;;;13.40;40.50;;;;;;5038488;28;20139;-67
2022/11/24 07:10:30;;;;;;;44.25;10.00;;;13.30;40.40;;;;;;5040822;28;19972;-69
2022/11/24 07:12:56;;;;;;;;;;;13.40;40.70;;;;;;5040115;28;20658;-66
2022/11/24 07:15:23;;;;;;;39.90;8.73;;;13.30;40.10;;;;;;5043203;28;20075;-67
2022/11/24 07:17:49;;;;;;;;;;;13.30;40.90;;;;;;5040746;28;20574;-67
2022/11/24 07:20:15;;;;;;;45.35;20.70;;;13.30;41.10;;;;;;5041162;28;21440;-66
2022/11/24 07:22:42;;;;;;;44.70;9.00;;;13.30;41.10;;;;;;5033485;28;20093;-67
2022/11/24 07:25:09;;;;;;;;;;;13.30;41.20;;;;;;5042359;28;20070;-67
2022/11/24 07:27:36;;;;;;;43.75;8.57;;;13.20;41.30;;;;;;5041881;28;19984;-69
2022/11/24 07:30:03;;;;;;;40.72;7.88;;;13.10;42.40;;;;;;5039820;28;20160;-66
2022/11/24 07:32:29;;;;;;;43.13;8.10;;;13.00;42.40;;;;;;5040683;28;20081;-66
2022/11/24 07:34:55;;;;;;;;;;;13.00;42.00;;;;;;5037223;28;20098;-67
2022/11/24 07:37:22;;;;;;;34.65;7.43;;;12.90;42.00;;;;;;5038973;28;19981;-66
2022/11/24 07:39:48;;;;;;;;;;;12.90;42.20;;;;;;5040023;28;20073;-67
2022/11/24 07:42:14;;;;;;;35.25;7.53;;;12.90;42.40;;;;;;5040144;28;20067;-66
2022/11/24 07:44:40;;;;;;;36.88;9.27;;;12.90;42.50;;;;;;5039918;28;20127;-66
2022/11/24 07:47:06;;;;;;;;;;;12.90;42.70;;;;;;5040613;28;20073;-68
2022/11/24 07:49:33;;;;;;;53.47;14.00;;;12.80;42.50;;;;;;5039917;28;19988;-67
2022/11/24 07:51:59;;;;;;;;;;;12.80;42.50;;;;;;5039923;28;20080;-66
2022/11/24 07:54:26;;;;;;;51.47;9.10;;;12.80;42.90;;;;;;5041221;28;20003;-66
2022/11/24 07:56:52;;;;;;;;;;;12.70;42.30;;;;;;5038000;28;20460;-66
2022/11/24 07:59:20;;;;;;;43.00;7.95;;;12.70;41.40;;;;;;5021713;28;19969;-67
2022/11/24 08:01:46;;;;;;;;;;;12.60;40.80;;;;;;5036910;28;20084;-67
2022/11/24 08:04:12;;;;;;;40.40;8.30;;;12.70;39.50;;;;;;5039549;28;19985;-67
2022/11/24 08:06:39;;;;;;;;;;;12.80;39.50;;;;;;5041465;28;20103;-66
2022/11/24 08:09:05;;;;;;;34.92;6.90;;;12.80;38.70;;;;;;5042746;28;19965;-67
2022/11/24 08:11:31;;;;;;;;;;;12.80;39.10;;;;;;5043057;28;20556;-65
2022/11/24 08:13:58;;;;;;;36.92;8.13;;;12.80;39.50;;;;;;5042303;28;19973;-68
2022/11/24 08:16:24;;;;;;;45.08;8.27;;;12.80;39.30;;;;;;5044307;28;20579;-68
2022/11/24 08:18:52;;;;;;;;;;;12.80;39.00;;;;;;5041444;28;20455;-66
2022/11/24 08:21:19;;;;;;;38.42;9.73;;;12.80;38.60;;;;;;5040299;28;19961;-66
2022/11/24 08:23:46;;;;;;;53.78;10.48;;;12.80;38.20;;;;;;5040481;28;20519;-67
2022/11/24 08:26:17;;;;;;;50.47;10.18;;;12.80;37.10;;;;;;5033067;28;20089;-67
2022/11/24 08:28:46;;;;;;;29.35;8.63;;;12.90;37.00;;;;;;5039785;28;20077;-67
2022/11/24 08:31:17;;;;;;;39.80;9.05;;;12.90;36.90;;;;;;5036827;28;20082;-69
2022/11/24 08:33:44;;;;;;;33.25;9.88;;;12.90;36.80;;;;;;5040796;28;20080;-68
2022/11/24 08:36:13;;;;;;;42.53;9.07;;;12.80;36.70;;;;;;5036777;28;20116;-68
2022/11/24 08:38:40;;;;;;;47.60;9.57;;;12.80;37.20;;;;;;5038848;28;20077;-65
2022/11/24 08:41:13;;;;;;;30.27;7.90;;;12.80;37.60;;;;;;5036776;28;20093;-69
2022/11/24 08:44:00;;;;;;;30.88;8.27;;;12.90;38.00;;;;;;5036903;28;20160;-67
2022/11/24 08:46:29;;;;;;;27.08;7.35;;;12.80;37.30;;;;;;5039664;28;20134;-68
2022/11/24 08:48:59;;;;;;;27.38;6.25;;;12.70;36.80;;;;;;5029160;28;20220;-67
2022/11/24 08:51:26;;;;;;;34.53;7.00;;;12.70;36.60;;;;;;5039405;28;20080;-66
2022/11/24 08:53:57;;;;;;;31.20;7.10;;;12.80;37.00;;;;;;5040259;28;20450;-66
2022/11/24 08:56:33;;;;;;;31.13;6.20;;;12.70;37.50;;;;;;5037615;28;20134;-68
2022/11/24 08:59:03;;;;;;;24.42;6.60;;;12.70;37.90;;;;;;5024678;28;20093;-68
2022/11/24 09:01:40;;;;;;;25.98;5.80;;;12.70;37.90;;;;;;5038566;28;20123;-68
2022/11/24 09:04:07;;;;;;;29.38;6.47;;;12.70;37.70;;;;;;4976163;28;20585;-66
2022/11/24 09:06:33;;;;;;;;;;;12.70;38.40;;;;;;5040105;28;20164;-66
2022/11/24 09:08:59;;;;;;;29.52;6.88;;;12.70;38.10;;;;;;5042231;28;19964;-65
2022/11/24 09:11:26;;;;;;;22.80;5.15;;;12.60;38.60;;;;;;5045438;28;20069;-69
2022/11/24 09:13:54;;;;;;;25.10;5.40;;;12.70;39.10;;;;;;5041128;28;20093;-67
2022/11/24 09:16:27;;;;;;;28.10;5.97;;;12.70;38.90;;;;;;5036088;28;20076;-69
2022/11/24 09:19:01;;;;;;;25.90;6.70;;;12.70;39.30;;;;;;5039454;28;20072;-66
2022/11/24 09:21:32;;;;;;;30.13;8.63;;;12.60;39.00;;;;;;5037498;28;20088;-68
2022/11/24 09:23:59;;;;;;;30.67;8.23;;;12.50;38.50;;;;;;5027762;28;20085;-68
2022/11/24 09:26:31;;;;;;;33.00;8.38;;;12.50;38.60;;;;;;5038251;28;20073;-67
2022/11/24 09:28:59;;;;;;;33.75;8.80;;;12.50;38.80;;;;;;5035815;28;20066;-67
2022/11/24 09:31:31;;;;;;;34.33;8.70;;;12.50;38.30;;;;;;5019153;28;20076;-67
2022/11/24 09:34:00;;;;;;;25.45;7.90;;;12.40;38.50;;;;;;5023132;28;20161;-67
2022/11/24 09:36:39;;;;;;;38.97;7.93;;;12.50;38.80;;;;;;5039473;28;20094;-68
2022/11/24 09:39:05;;;;;;;30.95;7.50;;;12.50;38.00;;;;;;5034100;28;20073;-67
2022/11/24 09:41:35;;;;;;;;;;;12.50;37.90;;;;;;5039797;28;20073;-69
2022/11/24 09:44:20;;;;;;;28.50;7.35;;;12.40;38.30;;;;;;5031981;28;19964;-69
2022/11/24 09:47:00;;;;;;;33.22;8.15;;;12.30;38.70;;;;;;5032500;28;20073;-67
2022/11/24 09:49:57;;;;;;;45.90;7.85;;;12.30;37.90;;;;;;5041791;28;20076;-66
2022/11/24 09:52:43;;;;;;;25.52;7.60;;;12.40;37.80;;;;;;5026167;28;20089;-68
2022/11/24 09:55:23;;;;;;;41.03;8.13;;;12.30;38.50;;;;;;5031816;28;20089;-68
2022/11/24 09:58:16;;;;;;;30.70;7.22;;;12.30;38.70;;;;;;5047009;28;20172;-66
2022/11/24 10:00:42;;;;;;;29.05;6.80;;;12.30;39.70;;;;;;5043112;28;20430;-65
2022/11/24 10:03:14;;;;;;;;;;;12.30;40.20;;;;;;5040345;28;20101;-67
2022/11/24 10:05:42;;;;;;;30.98;7.35;;;12.30;39.70;;;;;;5039353;28;19958;-66
2022/11/24 10:08:47;;;;;;;27.27;7.40;;;12.30;40.60;;;;;;5042834;28;20097;-67
2022/11/24 10:11:20;;;;;;;28.38;7.65;;;12.30;40.70;;;;;;5044910;28;20535;-67
2022/11/24 10:14:31;;;;;;;25.50;6.45;;;12.20;40.80;;;;;;5042799;28;20097;-66
2022/11/24 10:17:05;;;;;;;27.73;6.80;;;12.20;40.60;;;;;;5036006;28;20154;-67
2022/11/24 10:20:05;;;;;;;21.08;6.20;;;12.20;40.50;;;;;;5039021;28;20143;-66
2022/11/24 10:22:44;;;;;;;30.83;6.80;;;12.30;40.40;;;;;;4996283;28;20078;-66
2022/11/24 10:25:42;;;;;;;21.42;5.90;;;12.30;40.90;;;;;;5043000;28;20112;-68
2022/11/24 10:28:14;;;;;;;18.15;5.78;;;12.30;41.20;;;;;;5007800;28;20116;-69
2022/11/24 10:30:41;;;;;;;20.02;5.25;;;12.30;42.20;;;;;;5040484;28;20101;-66
2022/11/24 10:33:20;;;;;;;15.43;4.60;;;12.30;41.60;;;;;;5047076;28;20152;-68
2022/11/24 10:35:52;;;;;;;15.38;4.53;;;12.30;40.60;;;;;;5039475;28;20093;-66
2022/11/24 10:38:34;;;;;;;15.63;3.70;;;12.40;40.70;;;;;;5044555;28;20172;-68
2022/11/24 10:41:26;;;;;;;22.15;4.38;;;12.50;41.10;;;;;;5042887;28;20132;-65
2022/11/24 10:43:56;;;;;;;17.20;4.85;;;12.50;40.40;;;;;;5035297;28;20093;-67
2022/11/24 10:46:26;;;;;;;17.98;5.45;;;12.50;39.90;;;;;;5040908;28;20489;-66
2022/11/24 10:48:57;;;;;;;20.38;5.80;;;12.60;38.90;;;;;;5046954;28;20203;-66
2022/11/24 10:51:45;;;;;;;24.33;8.20;;;12.70;39.00;;;;;;5043379;28;20594;-67
2022/11/24 10:54:16;;;;;;;30.35;9.63;;;12.70;38.70;;;;;;5044022;28;20070;-66
2022/11/24 10:56:44;;;;;;;20.20;8.18;;;12.80;38.10;;;;;;5035820;28;20116;-67
2022/11/24 10:59:31;;;;;;;25.23;8.20;;;12.80;38.70;;;;;;5041257;28;20097;-68
2022/11/24 11:01:58;;;;;;;22.70;7.00;;;12.80;38.60;;;;;;5039942;28;20070;-67
2022/11/24 11:04:35;;;;;;;18.23;7.18;;;12.90;38.70;;;;;;5041086;28;20108;-65
2022/11/24 11:07:18;;;;;;;17.10;6.07;;;13.00;38.90;;;;;;5042799;28;20116;-66
2022/11/24 11:09:46;;;;;;;22.40;6.10;;;13.00;39.40;;;;;;5043169;28;20087;-68
2022/11/24 11:12:21;;;;;;;16.52;4.60;;;13.10;39.80;;;;;;5037123;28;20542;-67
2022/11/24 11:14:47;;;;;;;10.30;4.53;;;13.10;38.70;;;;;;5040793;28;20107;-64
2022/11/24 11:17:31;;;;;;;;;;;13.20;39.30;;;;;;5040086;28;20492;-66
2022/11/24 11:20:24;;;;;;;9.15;3.97;;;13.20;39.20;;;;;;5037198;28;19958;-66
2022/11/24 11:22:50;;;;;;;10.52;4.05;;;13.20;39.30;;;;;;5041086;28;20072;-65
2022/11/24 11:25:35;;;;;;;8.73;3.35;;;13.30;39.00;;;;;;5041190;28;20097;-66
2022/11/24 11:28:27;;;;;;;7.13;3.00;;;13.40;38.80;;;;;;5038142;28;20076;-66
2022/11/24 11:31:01;;;;;;;9.80;2.50;;;13.40;38.60;;;;;;5037178;28;20454;-66
2022/11/24 11:33:30;;;;;;;5.97;1.90;;;13.50;38.90;;;;;;5036198;28;20459;-66
2022/11/24 11:36:00;;;;;;;6.85;2.35;;;13.50;39.10;;;;;;5044713;28;20442;-66
2022/11/24 11:38:32;;;;;;;8.30;1.42;;;13.60;39.10;;;;;;5042521;28;20475;-66
2022/11/24 11:41:01;;;;;;;4.68;1.50;;;13.60;39.20;;;;;;5043485;28;20515;-66
2022/11/24 11:43:35;;;;;;;2.50;1.20;;;13.70;39.30;;;;;;5041137;28;20104;-65
2022/11/24 11:46:15;;;;;;;6.93;1.00;;;13.70;39.30;;;;;;5040721;28;20070;-66
2022/11/24 11:48:45;;;;;;;4.25;1.20;;;13.70;39.30;;;;;;5039039;28;20081;-68
2022/11/24 11:51:30;;;;;;;3.53;0.90;;;13.80;39.50;;;;;;5036980;28;20164;-67
2022/11/24 11:54:09;;;;;;;2.25;1.08;;;13.80;39.60;;;;;;5039234;28;20073;-67
2022/11/24 11:56:44;;;;;;;2.40;1.02;;;13.80;39.90;;;;;;5040378;28;20093;-66
2022/11/24 11:59:31;;;;;;;3.10;0.98;;;13.80;39.90;;;;;;5043429;28;20069;-68
2022/11/24 12:02:29;;;;;;;6.07;1.10;;;13.80;39.70;;;;;;5039920;28;20595;-68
2022/11/24 12:04:59;;;;;;;4.20;0.70;;;13.80;39.70;;;;;;5044335;28;20073;-68
2022/11/24 12:07:53;;;;;;;2.47;0.85;;;13.90;39.50;;;;;;5042406;28;20093;-67
2022/11/24 12:10:38;;;;;;;10.02;1.23;;;14.00;39.10;;;;;;5039758;28;20065;-68
2022/11/24 12:13:33;;;;;;;25.45;1.27;;;14.00;39.10;;;;;;5043136;28;20062;-67
2022/11/24 12:16:29;;;;;;;30.60;2.03;;;14.30;37.50;;;;;;5034632;28;20528;-67
2022/11/24 12:19:26;;;;;;;48.85;3.05;;;14.50;36.60;;;;;;5040372;28;20086;-69
2022/11/24 12:22:26;;;;;;;109.13;6.80;;;14.80;35.30;;;;;;5044056;28;20462;-68
2022/11/24 12:25:26;;;;;;;82.68;5.85;;;15.20;33.20;;;;;;5035441;28;20551;-67
2022/11/24 12:27:58;;;;;;;68.53;4.90;;;15.80;31.60;;;;;;5036865;28;20104;-66
2022/11/24 12:30:30;;;;;;;47.75;4.78;;;15.90;30.80;;;;;;5037766;28;20077;-67
2022/11/24 12:33:18;;;;;;;53.60;4.75;;;16.10;30.20;;;;;;5037934;28;20431;-66
2022/11/24 12:35:50;;;;;;;43.65;4.22;;;16.30;29.80;;;;;;5038733;28;20430;-67
2022/11/24 12:38:35;;;;;;;34.20;4.00;;;16.40;29.50;;;;;;5039112;28;20097;-67
2022/11/24 12:41:10;;;;;;;60.42;4.45;;;16.50;29.60;;;;;;5027229;28;20070;-66
2022/11/24 12:43:40;;;;;;;54.33;4.00;;;16.70;28.30;;;;;;5035420;28;20066;-68
2022/11/24 12:47:02;;;;;;;48.50;4.20;;;16.90;28.10;;;;;;5039692;28;20082;-66
2022/11/24 12:49:59;;;;;;;39.58;3.58;;;17.00;28.40;;;;;;4977329;28;20089;-68
2022/11/24 12:52:30;;;;;;;36.90;3.42;;;17.00;28.60;;;;;;5037245;28;20135;-67
2022/11/24 12:54:58;;;;;;;38.28;3.50;;;16.90;28.90;;;;;;5039596;28;20590;-67
2022/11/24 12:57:50;;;;;;;58.75;4.20;;;16.90;28.40;;;;;;5042936;28;20504;-68
2022/11/24 13:00:22;;;;;;;58.83;3.20;;;16.90;28.60;;;;;;5042812;28;20522;-66
2022/11/24 13:03:05;;;;;;;39.38;3.40;;;16.90;28.80;;;;;;5039189;28;20110;-66
2022/11/24 13:05:49;;;;;;;45.70;3.30;;;16.90;29.10;;;;;;5037863;28;20127;-66
2022/11/24 13:08:16;;;;;;;31.13;2.83;;;16.80;29.40;;;;;;5040855;28;20070;-66
2022/11/24 13:10:43;;;;;;;31.10;2.15;;;16.60;29.70;;;;;;5037256;28;20084;-69
2022/11/24 13:13:11;;;;;;;31.55;2.58;;;16.60;30.00;;;;;;5042451;28;20081;-66